Time;durP1;ratioP1;P1;durP2;ratioP2;P2;SDS_P1;SDS_P2;PMS_P1;PMS_P2;Temp;Humidity;BMP_temperature;BMP_pressure;BME280_temperature;BME280_humidity;BME280_pressure;Samples;Min_cycle;Max_cycle;Signal;HPM_P1;HPM_P2
2022/07/23 00:00:52;;;;;;;0.88;0.63;;;14.40;99.90;;;;;;5079188;28;20043;-76
2022/07/23 00:03:18;;;;;;;0.50;0.40;;;14.40;99.90;;;;;;5096215;28;20169;-76
2022/07/23 00:05:43;;;;;;;0.70;0.40;;;14.30;99.90;;;;;;5095490;28;20231;-76
2022/07/23 00:08:09;;;;;;;1.23;0.60;;;14.30;99.90;;;;;;5130188;27;20124;-77
2022/07/23 00:10:35;;;;;;;0.60;0.52;;;14.30;99.90;;;;;;5096037;28;20156;-76
2022/07/23 00:13:01;;;;;;;0.60;0.60;;;14.30;99.90;;;;;;5129967;27;20112;-76
2022/07/23 00:15:27;;;;;;;0.75;0.60;;;14.30;99.90;;;;;;5095846;28;20038;-76
2022/07/23 00:17:52;;;;;;;0.80;0.40;;;14.30;99.90;;;;;;5129865;27;20047;-76
2022/07/23 00:20:18;;;;;;;0.43;0.43;;;14.30;99.90;;;;;;5129924;27;20039;-76
2022/07/23 00:22:48;;;;;;;1.55;0.70;;;14.20;99.90;;;;;;5094640;28;20039;-76
2022/07/23 00:25:14;;;;;;;0.90;0.70;;;14.20;99.90;;;;;;5079048;28;20055;-76
2022/07/23 00:27:40;;;;;;;1.20;0.70;;;14.30;99.90;;;;;;5095621;28;20047;-76
2022/07/23 00:30:06;;;;;;;0.70;0.70;;;14.20;99.90;;;;;;5129322;27;20055;-76
2022/07/23 00:32:32;;;;;;;2.10;0.90;;;14.20;99.90;;;;;;5094973;28;20139;-76
2022/07/23 00:34:57;;;;;;;1.20;0.80;;;14.10;99.90;;;;;;5129328;27;20088;-76
2022/07/23 00:37:23;;;;;;;1.48;0.80;;;14.10;99.90;;;;;;5128866;27;20043;-76
2022/07/23 00:39:49;;;;;;;0.60;0.60;;;14.20;99.90;;;;;;5128953;27;20180;-76
2022/07/23 00:42:14;;;;;;;0.95;0.82;;;14.10;99.90;;;;;;5094861;28;20043;-76
2022/07/23 00:44:40;;;;;;;0.82;0.80;;;14.10;99.90;;;;;;5095273;28;20050;-76
2022/07/23 00:47:06;;;;;;;0.60;0.50;;;14.00;99.90;;;;;;5078194;28;20682;-76
2022/07/23 00:49:32;;;;;;;0.70;0.50;;;14.00;99.90;;;;;;5095416;28;20052;-76
2022/07/23 00:52:01;;;;;;;0.90;0.60;;;13.90;99.90;;;;;;5077921;28;20406;-76
2022/07/23 00:54:27;;;;;;;0.52;0.40;;;13.90;99.90;;;;;;5078249;28;20058;-76
2022/07/23 00:56:54;;;;;;;0.20;0.20;;;13.80;99.90;;;;;;5094366;28;20047;-76
2022/07/23 00:59:20;;;;;;;0.70;0.40;;;13.90;99.90;;;;;;5094493;28;20423;-76
2022/07/23 01:01:48;;;;;;;0.50;0.40;;;13.80;99.90;;;;;;5077737;28;20224;-76
2022/07/23 01:04:15;;;;;;;0.35;0.35;;;13.80;99.90;;;;;;5094892;28;20538;-76
2022/07/23 01:06:42;;;;;;;0.30;0.30;;;13.80;99.90;;;;;;5077983;28;20048;-76
2022/07/23 01:09:08;;;;;;;0.47;0.40;;;13.80;99.90;;;;;;5094698;28;20058;-76
2022/07/23 01:11:35;;;;;;;0.32;0.30;;;13.80;99.90;;;;;;5077727;28;20040;-76
2022/07/23 01:14:18;;;;;;;0.52;0.35;;;13.70;99.90;;;;;;5077754;28;20036;-76
2022/07/23 01:16:46;;;;;;;0.30;0.30;;;13.80;99.90;;;;;;5094052;28;20078;-76
2022/07/23 01:19:12;;;;;;;0.47;0.40;;;13.70;99.90;;;;;;5093630;28;20040;-76
2022/07/23 01:21:41;;;;;;;0.20;0.20;;;13.70;99.90;;;;;;5077243;28;20052;-76
2022/07/23 01:24:07;;;;;;;0.52;0.30;;;13.60;99.90;;;;;;5094348;28;20039;-76
2022/07/23 01:26:33;;;;;;;0.52;0.30;;;13.60;99.90;;;;;;5094440;28;20460;-76
2022/07/23 01:28:59;;;;;;;0.75;0.40;;;13.60;99.90;;;;;;5094837;28;20043;-76
2022/07/23 01:31:25;;;;;;;0.30;0.20;;;13.70;99.90;;;;;;5094643;28;20113;-76
2022/07/23 01:33:51;;;;;;;;;;;13.70;99.90;;;;;;5078420;28;20047;-76
2022/07/23 01:36:17;;;;;;;0.60;0.30;;;13.70;99.90;;;;;;5113307;28;19923;-76
2022/07/23 01:38:42;;;;;;;0.50;0.30;;;13.70;99.90;;;;;;5078608;28;20118;-76
2022/07/23 01:41:08;;;;;;;0.65;0.40;;;13.70;99.90;;;;;;5094971;28;20490;-76
2022/07/23 01:43:33;;;;;;;0.30;0.30;;;13.70;99.90;;;;;;5095246;28;20044;-77
2022/07/23 01:45:59;;;;;;;0.30;0.30;;;13.70;99.90;;;;;;5094989;28;20067;-77
2022/07/23 01:48:25;;;;;;;0.40;0.35;;;13.70;99.90;;;;;;5078162;28;20046;-76
2022/07/23 01:50:51;;;;;;;0.20;0.20;;;13.70;99.90;;;;;;5077653;28;20049;-77
2022/07/23 01:53:16;;;;;;;0.30;0.30;;;13.80;99.90;;;;;;5094293;28;20122;-77
2022/07/23 01:55:42;;;;;;;0.65;0.30;;;13.80;99.90;;;;;;5093637;28;20039;-76
2022/07/23 01:58:08;;;;;;;0.40;0.35;;;13.80;99.90;;;;;;5094187;28;20367;-77
2022/07/23 02:00:35;;;;;;;0.28;0.20;;;13.80;99.90;;;;;;5076791;28;20039;-76
2022/07/23 02:03:00;;;;;;;0.45;0.43;;;13.80;99.90;;;;;;5077015;28;20057;-76
2022/07/23 02:05:28;;;;;;;0.60;0.40;;;13.70;99.90;;;;;;5110776;28;20120;-76
2022/07/23 02:07:54;;;;;;;0.40;0.40;;;13.70;99.90;;;;;;5093884;28;20684;-76
2022/07/23 02:10:20;;;;;;;0.40;0.40;;;13.60;99.90;;;;;;5093603;28;20088;-76
2022/07/23 02:12:46;;;;;;;1.02;0.60;;;13.70;99.90;;;;;;5093250;28;20067;-76
2022/07/23 02:15:12;;;;;;;0.65;0.45;;;13.70;99.90;;;;;;5093677;28;20071;-76
2022/07/23 02:17:38;;;;;;;0.68;0.60;;;13.60;99.90;;;;;;5093520;28;20067;-76
2022/07/23 02:20:05;;;;;;;1.63;0.70;;;13.60;99.90;;;;;;5093495;28;20040;-76
2022/07/23 02:22:30;;;;;;;0.88;0.68;;;13.50;99.90;;;;;;5093351;28;20040;-76
2022/07/23 02:24:56;;;;;;;0.77;0.60;;;13.50;99.90;;;;;;5111920;28;20047;-76
2022/07/23 02:27:22;;;;;;;0.70;0.57;;;13.60;99.90;;;;;;5076571;28;20066;-76
2022/07/23 02:29:48;;;;;;;0.70;0.60;;;13.60;99.90;;;;;;5126947;27;20056;-76
2022/07/23 02:32:14;;;;;;;1.45;0.95;;;13.50;99.90;;;;;;5093396;28;20048;-76
2022/07/23 02:34:40;;;;;;;1.63;1.10;;;13.60;99.90;;;;;;5093566;28;20039;-76
2022/07/23 02:37:06;;;;;;;1.15;0.80;;;13.50;99.90;;;;;;5093496;28;20123;-76
2022/07/23 02:39:31;;;;;;;1.30;0.82;;;13.50;99.90;;;;;;5093726;28;20032;-76
2022/07/23 02:41:57;;;;;;;1.70;0.95;;;13.50;99.90;;;;;;5093307;28;20189;-76
2022/07/23 02:44:23;;;;;;;0.50;0.50;;;13.50;99.90;;;;;;5111781;28;20046;-76
2022/07/23 02:46:48;;;;;;;1.08;0.80;;;13.50;99.90;;;;;;5076570;28;20479;-76
2022/07/23 02:49:14;;;;;;;0.98;0.68;;;13.60;99.90;;;;;;5092956;28;20119;-76
2022/07/23 02:51:39;;;;;;;1.75;0.70;;;13.60;99.90;;;;;;5076490;28;20050;-76
2022/07/23 02:54:05;;;;;;;0.82;0.57;;;13.50;99.90;;;;;;5093258;28;20039;-76
2022/07/23 02:56:32;;;;;;;0.50;0.50;;;13.60;99.90;;;;;;5076479;28;20040;-76
2022/07/23 02:58:57;;;;;;;0.50;0.40;;;13.50;99.90;;;;;;5076285;28;20051;-76
2022/07/23 03:01:23;;;;;;;0.60;0.60;;;13.60;99.90;;;;;;5076505;28;20054;-76
2022/07/23 03:03:49;;;;;;;0.85;0.60;;;13.60;99.90;;;;;;5059672;28;20039;-76
2022/07/23 03:06:14;;;;;;;0.85;0.65;;;13.50;99.90;;;;;;5076573;28;20127;-76
2022/07/23 03:08:40;;;;;;;0.60;0.60;;;13.50;99.90;;;;;;5092684;28;20511;-76
2022/07/23 03:11:10;;;;;;;0.50;0.50;;;13.60;99.90;;;;;;5092825;28;20040;-76
2022/07/23 03:13:40;;;;;;;0.65;0.60;;;13.60;99.90;;;;;;5093167;28;20101;-76
2022/07/23 03:16:06;;;;;;;0.70;0.60;;;13.60;99.90;;;;;;5093131;28;20504;-76
2022/07/23 03:18:32;;;;;;;;;;;13.60;99.90;;;;;;5093564;28;20123;-76
2022/07/23 03:20:59;;;;;;;0.80;0.60;;;13.50;99.90;;;;;;5092860;28;20002;-76
2022/07/23 03:23:24;;;;;;;0.50;0.50;;;13.50;99.90;;;;;;5092901;28;20126;-76
2022/07/23 03:25:50;;;;;;;1.08;0.60;;;13.50;99.90;;;;;;5092992;28;20189;-76
2022/07/23 03:28:17;;;;;;;1.08;0.52;;;13.50;99.90;;;;;;5092593;28;20100;-76
2022/07/23 03:30:46;;;;;;;0.68;0.60;;;13.50;99.90;;;;;;5092811;28;20134;-76
2022/07/23 03:33:12;;;;;;;0.50;0.50;;;13.50;99.90;;;;;;5092825;28;20428;-76
2022/07/23 03:35:38;;;;;;;0.60;0.55;;;13.50;99.90;;;;;;5092848;28;20112;-76
2022/07/23 03:38:04;;;;;;;0.70;0.60;;;13.50;99.90;;;;;;5075903;28;20035;-76
2022/07/23 03:40:29;;;;;;;0.60;0.50;;;13.60;99.90;;;;;;5076113;28;20062;-76
2022/07/23 03:42:55;;;;;;;1.17;0.80;;;13.60;99.90;;;;;;5129898;27;20082;-76
2022/07/23 03:45:21;;;;;;;0.80;0.60;;;13.60;99.90;;;;;;5096393;28;20105;-76
2022/07/23 03:47:46;;;;;;;0.60;0.60;;;13.50;99.90;;;;;;5096031;28;20039;-76
2022/07/23 03:50:12;;;;;;;0.55;0.50;;;13.60;99.90;;;;;;5095887;28;20043;-76
2022/07/23 03:52:38;;;;;;;0.65;0.50;;;13.60;99.90;;;;;;5095670;28;20050;-76
2022/07/23 03:55:04;;;;;;;0.40;0.40;;;13.60;99.90;;;;;;5095750;28;20055;-76
2022/07/23 03:57:30;;;;;;;0.50;0.50;;;13.70;99.90;;;;;;5095722;28;20048;-76
2022/07/23 03:59:55;;;;;;;0.60;0.50;;;13.70;99.90;;;;;;5095480;28;20040;-76
2022/07/23 04:02:21;;;;;;;1.30;0.50;;;13.70;99.90;;;;;;5095641;28;20043;-76
2022/07/23 04:04:47;;;;;;;1.65;1.25;;;13.70;99.90;;;;;;5095965;28;20072;-76
2022/07/23 04:07:13;;;;;;;1.25;0.98;;;13.70;99.90;;;;;;5096099;28;20040;-76
2022/07/23 04:09:40;;;;;;;0.73;0.68;;;13.60;99.90;;;;;;5130140;27;20051;-76
2022/07/23 04:12:07;;;;;;;0.63;0.60;;;13.70;99.90;;;;;;5095683;28;20051;-76
2022/07/23 04:14:33;;;;;;;1.10;0.80;;;13.60;99.90;;;;;;5129670;27;20043;-76
2022/07/23 04:16:59;;;;;;;;;;;13.70;99.90;;;;;;5079289;28;20084;-76
2022/07/23 04:19:25;;;;;;;1.70;1.00;;;13.70;99.90;;;;;;5096133;28;19967;-76
2022/07/23 04:21:51;;;;;;;0.93;0.40;;;13.70;99.90;;;;;;5095686;28;20044;-76
2022/07/23 04:24:17;;;;;;;1.13;0.77;;;13.80;99.90;;;;;;5129828;27;20039;-76
2022/07/23 04:26:43;;;;;;;2.20;1.10;;;13.90;99.90;;;;;;5078791;28;20047;-76
2022/07/23 04:29:09;;;;;;;2.28;1.35;;;13.90;99.90;;;;;;5095501;28;20059;-76
2022/07/23 04:31:35;;;;;;;2.60;1.10;;;13.90;99.90;;;;;;5095196;28;20056;-75
2022/07/23 04:34:01;;;;;;;1.50;0.88;;;13.80;99.90;;;;;;5129532;27;20043;-76
2022/07/23 04:36:27;;;;;;;2.25;1.05;;;13.90;99.90;;;;;;5095532;28;20035;-76
2022/07/23 04:38:53;;;;;;;1.15;0.88;;;13.90;99.90;;;;;;5129747;27;20040;-75
2022/07/23 04:41:18;;;;;;;1.77;1.05;;;14.00;99.90;;;;;;5095592;28;20316;-76
2022/07/23 04:43:44;;;;;;;0.73;0.73;;;13.90;99.90;;;;;;5129271;27;20188;-75
2022/07/23 04:46:10;;;;;;;0.65;0.60;;;13.90;99.90;;;;;;5128917;27;20066;-75
2022/07/23 04:48:36;;;;;;;0.85;0.70;;;13.90;99.90;;;;;;5095149;28;20096;-75
2022/07/23 04:51:03;;;;;;;0.93;0.80;;;14.00;99.90;;;;;;5129293;27;20071;-75
2022/07/23 04:53:28;;;;;;;0.75;0.60;;;14.10;99.90;;;;;;5083949;28;20414;-75
2022/07/23 04:55:54;;;;;;;1.88;0.50;;;14.10;99.90;;;;;;5108947;28;20093;-75
2022/07/23 04:58:20;;;;;;;1.27;0.90;;;14.10;99.90;;;;;;5074536;28;20434;-75
2022/07/23 05:00:46;;;;;;;0.73;0.55;;;14.10;99.90;;;;;;5085978;28;20039;-75
2022/07/23 05:03:11;;;;;;;1.35;0.95;;;14.20;99.90;;;;;;5128959;27;20394;-75
2022/07/23 05:05:37;;;;;;;1.30;0.57;;;14.20;99.90;;;;;;5128635;27;20035;-75
2022/07/23 05:08:03;;;;;;;1.65;1.00;;;14.20;99.90;;;;;;5094781;28;20054;-75
2022/07/23 05:10:29;;;;;;;1.52;1.02;;;14.20;99.90;;;;;;5094556;28;20578;-75
2022/07/23 05:12:55;;;;;;;1.75;1.08;;;14.40;99.90;;;;;;5093798;28;20176;-75
2022/07/23 05:15:20;;;;;;;2.65;1.15;;;14.40;99.90;;;;;;5077586;28;20096;-75
2022/07/23 05:17:46;;;;;;;1.73;0.90;;;14.50;99.90;;;;;;5077832;28;20062;-75
2022/07/23 05:20:13;;;;;;;3.90;0.90;;;14.60;99.90;;;;;;5094041;28;20401;-75
2022/07/23 05:22:39;;;;;;;0.80;0.80;;;14.60;99.90;;;;;;5094270;28;20173;-75
2022/07/23 05:25:05;;;;;;;2.55;1.10;;;14.70;99.90;;;;;;5094010;28;20126;-75
2022/07/23 05:27:31;;;;;;;1.02;0.73;;;14.60;99.90;;;;;;5094179;28;20119;-75
2022/07/23 05:29:57;;;;;;;1.02;0.80;;;14.70;99.90;;;;;;5093674;28;20524;-75
2022/07/23 05:32:23;;;;;;;2.25;0.90;;;14.80;99.90;;;;;;5128120;27;20055;-75
2022/07/23 05:34:48;;;;;;;1.58;1.00;;;14.60;99.90;;;;;;5077051;28;20036;-76
2022/07/23 05:37:14;;;;;;;1.13;0.80;;;14.60;99.90;;;;;;5128093;27;20187;-75
2022/07/23 05:39:40;;;;;;;1.33;0.80;;;14.60;99.90;;;;;;5111140;28;20051;-75
2022/07/23 05:42:05;;;;;;;2.10;1.00;;;14.60;99.90;;;;;;5076962;28;20092;-75
2022/07/23 05:44:31;;;;;;;1.65;0.80;;;14.60;99.90;;;;;;5127833;27;20044;-75
2022/07/23 05:46:57;;;;;;;1.50;0.80;;;14.70;99.90;;;;;;5127929;27;20047;-75
2022/07/23 05:49:23;;;;;;;1.45;1.00;;;14.80;99.90;;;;;;5076756;28;20059;-75
2022/07/23 05:51:48;;;;;;;2.42;1.20;;;14.90;99.90;;;;;;5110301;27;20099;-75
2022/07/23 05:54:14;;;;;;;1.13;0.85;;;15.00;99.90;;;;;;5093906;28;20039;-75
2022/07/23 05:56:40;;;;;;;2.28;1.20;;;15.00;99.90;;;;;;5127827;27;20561;-75
2022/07/23 05:59:05;;;;;;;2.20;1.42;;;15.10;99.90;;;;;;5076626;28;20079;-75
2022/07/23 06:01:31;;;;;;;2.55;1.50;;;15.10;99.90;;;;;;5093026;28;20032;-75
2022/07/23 06:03:57;;;;;;;2.22;1.17;;;15.10;99.90;;;;;;5110154;28;20043;-75
2022/07/23 06:06:23;;;;;;;0.77;0.77;;;15.10;99.90;;;;;;5076433;28;20035;-75
2022/07/23 06:08:48;;;;;;;1.52;0.80;;;15.10;99.90;;;;;;5093550;28;20112;-75
2022/07/23 06:11:14;;;;;;;0.95;0.68;;;15.20;99.90;;;;;;5127796;27;20043;-75
2022/07/23 06:13:40;;;;;;;0.60;0.60;;;15.20;99.90;;;;;;5127581;27;20047;-75
2022/07/23 06:16:05;;;;;;;0.77;0.60;;;15.30;99.90;;;;;;5076134;28;20077;-75
2022/07/23 06:18:31;;;;;;;2.10;0.90;;;15.40;99.90;;;;;;5127474;27;20075;-75
2022/07/23 06:20:57;;;;;;;1.63;0.90;;;15.50;99.90;;;;;;5127182;27;20532;-75
2022/07/23 06:23:22;;;;;;;1.50;1.10;;;15.40;99.90;;;;;;5127296;27;20047;-75
2022/07/23 06:25:48;;;;;;;1.10;0.80;;;15.40;99.90;;;;;;5127397;27;20047;-75
2022/07/23 06:28:15;;;;;;;2.78;1.35;;;15.40;99.90;;;;;;5110240;28;20047;-75
2022/07/23 06:30:41;;;;;;;1.40;1.10;;;15.40;99.90;;;;;;5093417;28;20051;-75
2022/07/23 06:33:07;;;;;;;2.45;0.70;;;15.50;99.90;;;;;;5092769;28;20039;-75
2022/07/23 06:35:33;;;;;;;1.27;0.80;;;15.40;99.90;;;;;;5092447;28;20045;-75
2022/07/23 06:37:59;;;;;;;1.85;0.90;;;15.40;99.90;;;;;;5092881;28;20054;-75
2022/07/23 06:40:25;;;;;;;1.48;0.80;;;15.40;99.90;;;;;;5092881;28;20035;-76
2022/07/23 06:42:51;;;;;;;0.70;0.70;;;15.40;99.90;;;;;;5092903;28;20047;-75
2022/07/23 06:45:17;;;;;;;1.45;0.80;;;15.50;99.90;;;;;;5092799;28;20138;-75
2022/07/23 06:47:43;;;;;;;1.08;0.70;;;15.60;99.90;;;;;;5126893;28;20127;-75
2022/07/23 06:50:09;;;;;;;1.00;0.88;;;15.70;99.90;;;;;;5109916;28;20107;-75
2022/07/23 06:52:35;;;;;;;1.45;0.75;;;15.80;99.90;;;;;;5092869;28;20040;-75
2022/07/23 06:55:00;;;;;;;0.80;0.70;;;15.90;99.90;;;;;;5092581;28;20127;-75
2022/07/23 06:57:26;;;;;;;1.17;0.70;;;16.10;99.90;;;;;;5075912;28;20039;-75
2022/07/23 06:59:52;;;;;;;1.58;0.90;;;16.00;99.90;;;;;;5076412;28;20040;-75
2022/07/23 07:02:18;;;;;;;0.43;0.40;;;16.10;99.90;;;;;;5093207;28;20561;-75
2022/07/23 07:04:43;;;;;;;0.88;0.50;;;16.10;99.90;;;;;;5093144;28;20131;-75
2022/07/23 07:07:09;;;;;;;1.50;0.75;;;16.30;99.90;;;;;;5059412;28;20056;-75
2022/07/23 07:09:35;;;;;;;1.20;0.47;;;16.40;99.90;;;;;;5076108;28;20075;-75
2022/07/23 07:12:01;;;;;;;0.73;0.55;;;16.50;99.90;;;;;;5092788;28;20135;-75
2022/07/23 07:14:27;;;;;;;;;;;16.70;99.90;;;;;;5093316;28;20043;-75
2022/07/23 07:16:52;;;;;;;0.40;0.20;;;17.00;99.90;;;;;;5128970;27;20274;-75
2022/07/23 07:19:18;;;;;;;1.10;0.40;;;17.10;99.90;;;;;;5079928;28;20123;-74
2022/07/23 07:21:44;;;;;;;0.70;0.40;;;17.30;99.90;;;;;;5079993;28;20051;-75
2022/07/23 07:24:09;;;;;;;1.30;0.45;;;17.20;99.90;;;;;;5096907;28;20044;-75
2022/07/23 07:26:35;;;;;;;0.70;0.30;;;17.20;99.90;;;;;;5096991;28;20044;-75
2022/07/23 07:29:01;;;;;;;1.17;0.40;;;17.30;99.90;;;;;;5096602;28;20040;-74
2022/07/23 07:31:26;;;;;;;0.75;0.30;;;17.20;99.90;;;;;;5078930;28;20062;-75
2022/07/23 07:33:52;;;;;;;0.30;0.30;;;17.20;99.90;;;;;;5096274;28;20079;-75
2022/07/23 07:36:18;;;;;;;1.05;0.28;;;17.30;99.90;;;;;;5096248;28;20084;-75
2022/07/23 07:38:43;;;;;;;0.55;0.30;;;17.20;99.90;;;;;;5062105;28;20039;-75
2022/07/23 07:41:10;;;;;;;1.10;0.40;;;17.10;99.90;;;;;;5078581;28;20150;-75
2022/07/23 07:43:36;;;;;;;1.08;0.30;;;17.10;99.90;;;;;;5095918;28;20047;-75
2022/07/23 07:46:03;;;;;;;0.47;0.20;;;17.10;99.90;;;;;;5096542;28;20066;-74
2022/07/23 07:48:28;;;;;;;0.50;0.30;;;17.30;99.90;;;;;;5096648;28;20193;-75
2022/07/23 07:50:54;;;;;;;1.05;0.30;;;17.50;99.90;;;;;;5130326;27;20551;-75
2022/07/23 07:53:20;;;;;;;1.63;0.40;;;17.40;99.90;;;;;;5130370;27;20050;-74
2022/07/23 07:55:45;;;;;;;;;;;17.30;99.90;;;;;;5096075;28;20490;-75
2022/07/23 07:58:11;;;;;;;0.77;0.22;;;17.30;99.90;;;;;;5130832;27;19941;-75
2022/07/23 08:00:37;;;;;;;0.57;0.28;;;17.30;99.90;;;;;;5113166;27;20046;-75
2022/07/23 08:03:02;;;;;;;0.40;0.30;;;17.40;99.90;;;;;;5130263;27;20051;-75
2022/07/23 08:05:29;;;;;;;0.20;0.20;;;17.40;99.90;;;;;;5130404;27;20142;-75
2022/07/23 08:07:56;;;;;;;1.20;0.40;;;17.40;99.90;;;;;;5096194;28;20069;-75
2022/07/23 08:10:23;;;;;;;0.95;0.30;;;17.50;99.90;;;;;;5096230;28;20102;-75
2022/07/23 08:12:53;;;;;;;0.75;0.38;;;17.70;99.90;;;;;;5095674;28;20043;-75
2022/07/23 08:15:20;;;;;;;1.27;0.40;;;18.10;99.90;;;;;;5095904;28;20079;-75
2022/07/23 08:17:47;;;;;;;1.75;0.40;;;18.10;99.90;;;;;;5095536;28;20079;-76
2022/07/23 08:20:15;;;;;;;0.90;0.30;;;18.30;99.90;;;;;;5095870;28;20494;-75
2022/07/23 08:22:48;;;;;;;0.10;0.10;;;18.40;99.90;;;;;;5095848;28;20051;-74
2022/07/23 08:25:15;;;;;;;0.73;0.30;;;18.60;99.90;;;;;;5112576;28;20119;-75
2022/07/23 08:27:41;;;;;;;0.98;0.30;;;19.00;99.90;;;;;;5095027;28;20054;-74
2022/07/23 08:30:07;;;;;;;0.45;0.25;;;19.20;99.90;;;;;;5095194;28;20052;-75
2022/07/23 08:32:33;;;;;;;0.35;0.20;;;19.60;99.90;;;;;;5078935;28;20096;-75
2022/07/23 08:34:59;;;;;;;;;;;19.50;99.90;;;;;;5096412;28;20051;-75
2022/07/23 08:37:24;;;;;;;0.57;0.30;;;19.20;99.90;;;;;;5129811;27;20363;-74
2022/07/23 08:39:50;;;;;;;;;;;19.00;99.90;;;;;;5079312;28;20059;-75
2022/07/23 08:42:16;;;;;;;0.88;0.25;;;18.80;99.90;;;;;;5130141;27;19927;-75
2022/07/23 08:44:45;;;;;;;0.22;0.17;;;18.60;99.90;;;;;;5096168;28;20043;-74
2022/07/23 08:47:15;;;;;;;0.45;0.20;;;18.40;99.90;;;;;;5095629;28;20517;-75
2022/07/23 08:49:41;;;;;;;1.10;0.22;;;18.20;99.90;;;;;;5096023;28;20090;-75
2022/07/23 08:52:07;;;;;;;;;;;18.10;99.90;;;;;;5079501;28;20079;-75
2022/07/23 08:54:34;;;;;;;0.38;0.30;;;18.20;99.90;;;;;;5096011;28;19915;-75
2022/07/23 08:57:00;;;;;;;0.57;0.43;;;18.20;99.90;;;;;;5095745;28;20031;-75
2022/07/23 08:59:26;;;;;;;;;;;18.40;99.90;;;;;;5096105;28;20103;-75
2022/07/23 09:01:52;;;;;;;0.82;0.38;;;18.80;99.90;;;;;;5129644;27;19931;-75
2022/07/23 09:04:18;;;;;;;;;;;18.90;99.90;;;;;;5078571;28;20044;-75
2022/07/23 09:06:44;;;;;;;0.88;0.47;;;18.80;99.90;;;;;;5112641;28;19932;-75
2022/07/23 09:09:17;;;;;;;1.83;0.40;;;18.60;99.90;;;;;;5095686;28;20047;-75
2022/07/23 09:11:47;;;;;;;0.95;0.30;;;18.50;99.90;;;;;;5095237;28;20047;-75
2022/07/23 09:14:12;;;;;;;1.23;0.75;;;18.30;99.90;;;;;;5078719;28;20393;-75
2022/07/23 09:16:38;;;;;;;;;;;18.10;99.90;;;;;;5129601;27;20040;-75
2022/07/23 09:19:05;;;;;;;0.50;0.13;;;18.30;99.90;;;;;;5128645;27;19926;-75
2022/07/23 09:21:38;;;;;;;0.30;0.20;;;18.20;99.90;;;;;;5094730;28;20031;-75
2022/07/23 09:24:08;;;;;;;0.22;0.22;;;18.20;99.90;;;;;;5094967;28;20043;-75
2022/07/23 09:26:38;;;;;;;0.80;0.30;;;18.20;99.90;;;;;;5094545;28;20039;-75
2022/07/23 09:29:05;;;;;;;1.25;0.30;;;18.40;99.90;;;;;;5128506;27;20040;-74
2022/07/23 09:31:34;;;;;;;0.45;0.30;;;18.50;99.90;;;;;;5094319;28;20043;-75
2022/07/23 09:34:16;;;;;;;0.95;0.40;;;18.60;99.90;;;;;;5094804;28;20171;-75
2022/07/23 09:36:42;;;;;;;1.08;0.50;;;18.50;99.90;;;;;;5094200;28;20044;-75
2022/07/23 09:39:08;;;;;;;1.30;0.60;;;18.50;99.90;;;;;;5094080;28;20055;-75
2022/07/23 09:41:43;;;;;;;0.73;0.32;;;18.60;99.90;;;;;;5094563;28;20039;-75
2022/07/23 09:44:16;;;;;;;1.25;0.35;;;18.80;99.90;;;;;;5077461;28;20063;-74
2022/07/23 09:46:43;;;;;;;0.63;0.40;;;19.00;99.90;;;;;;5094095;28;20040;-74
2022/07/23 09:49:23;;;;;;;1.25;0.50;;;19.00;99.90;;;;;;5094444;28;20465;-75
2022/07/23 09:51:57;;;;;;;0.68;0.30;;;18.80;99.90;;;;;;5093763;28;20075;-75
2022/07/23 09:54:26;;;;;;;1.70;0.40;;;18.90;99.90;;;;;;5073931;28;20086;-75
2022/07/23 09:56:53;;;;;;;0.50;0.30;;;18.90;99.90;;;;;;5107769;28;20032;-75
2022/07/23 09:59:30;;;;;;;2.00;0.40;;;18.90;99.90;;;;;;5057258;28;20133;-75
2022/07/23 10:01:56;;;;;;;;;;;18.70;99.90;;;;;;5108314;28;20044;-75
2022/07/23 10:04:24;;;;;;;0.63;0.30;;;18.80;99.90;;;;;;5073760;28;19916;-75
2022/07/23 10:06:55;;;;;;;0.20;0.20;;;18.70;99.90;;;;;;5073282;28;20336;-75
2022/07/23 10:09:33;;;;;;;0.70;0.30;;;18.70;99.90;;;;;;5110910;28;20062;-75
2022/07/23 10:14:34;;;;;;;0.43;0.28;;;18.60;99.90;;;;;;5093828;28;20120;-75
2022/07/23 10:17:03;;;;;;;2.05;0.50;;;18.60;99.90;;;;;;5076251;28;20085;-75
2022/07/23 10:19:30;;;;;;;1.80;0.40;;;18.50;99.90;;;;;;5093249;28;20116;-74
2022/07/23 10:22:14;;;;;;;0.93;0.50;;;18.70;99.90;;;;;;5093281;28;20119;-73
2022/07/23 10:24:46;;;;;;;0.50;0.40;;;18.50;99.90;;;;;;5092713;28;20374;-74
2022/07/23 10:27:47;;;;;;;1.05;0.47;;;18.50;99.90;;;;;;5127052;27;20040;-73
2022/07/23 10:30:27;;;;;;;1.13;0.43;;;18.40;99.90;;;;;;5127011;27;20252;-74
2022/07/23 10:33:18;;;;;;;0.73;0.40;;;18.40;99.90;;;;;;5127202;27;20060;-74
2022/07/23 10:36:09;;;;;;;1.33;0.40;;;18.40;99.90;;;;;;5093490;28;20048;-74
2022/07/23 10:38:47;;;;;;;2.63;0.30;;;18.40;99.90;;;;;;5092988;28;20043;-74
2022/07/23 10:41:13;;;;;;;0.57;0.30;;;18.60;99.90;;;;;;5092523;28;20039;-74
2022/07/23 10:43:39;;;;;;;;;;;18.70;99.90;;;;;;5093493;28;20039;-75
2022/07/23 10:46:38;;;;;;;0.47;0.32;;;18.80;99.90;;;;;;5076115;28;19927;-74
2022/07/23 10:49:33;;;;;;;0.30;0.30;;;18.90;99.90;;;;;;5127183;28;20047;-74
2022/07/23 10:52:14;;;;;;;0.45;0.20;;;18.90;99.90;;;;;;5096941;28;20087;-75
2022/07/23 10:54:41;;;;;;;1.05;0.50;;;18.80;99.90;;;;;;5096999;28;20122;-74
2022/07/23 10:57:08;;;;;;;0.88;0.40;;;18.70;99.90;;;;;;5096439;28;20048;-74
2022/07/23 11:00:00;;;;;;;1.48;0.40;;;18.50;99.90;;;;;;5096864;28;20050;-74
2022/07/23 11:02:28;;;;;;;0.80;0.40;;;18.60;99.90;;;;;;5059268;28;20053;-74
2022/07/23 11:04:58;;;;;;;0.95;0.50;;;18.70;99.90;;;;;;5097091;28;20047;-74
2022/07/23 11:07:24;;;;;;;0.40;0.38;;;18.80;99.90;;;;;;5079972;28;20130;-74
2022/07/23 11:09:49;;;;;;;;;;;18.80;99.90;;;;;;5097229;28;20139;-74
2022/07/23 11:12:24;;;;;;;0.57;0.43;;;18.80;99.90;;;;;;5080112;28;19943;-74
2022/07/23 11:15:05;;;;;;;1.02;0.40;;;18.70;99.90;;;;;;5130394;27;20561;-74
2022/07/23 11:17:33;;;;;;;4.10;0.68;;;18.60;99.90;;;;;;5096576;28;20052;-74
2022/07/23 11:20:11;;;;;;;0.93;0.50;;;18.40;99.90;;;;;;5096987;28;20735;-74
2022/07/23 11:22:51;;;;;;;0.55;0.50;;;18.30;99.90;;;;;;5096414;28;20126;-74
2022/07/23 11:25:22;;;;;;;0.50;0.50;;;18.20;99.90;;;;;;5096616;28;20047;-74
2022/07/23 11:27:51;;;;;;;0.85;0.40;;;18.40;99.90;;;;;;5130470;27;20078;-75
2022/07/23 11:30:26;;;;;;;0.50;0.50;;;18.60;99.90;;;;;;5082570;28;20071;-74
2022/07/23 11:32:53;;;;;;;1.73;0.63;;;18.70;99.90;;;;;;5055435;28;20557;-72
2022/07/23 11:35:27;;;;;;;0.57;0.30;;;19.00;99.90;;;;;;5072669;28;20052;-72
2022/07/23 11:38:15;;;;;;;0.98;0.30;;;19.30;99.90;;;;;;5072674;28;20059;-72
2022/07/23 11:40:43;;;;;;;0.80;0.60;;;19.50;99.90;;;;;;5056019;28;20041;-74
2022/07/23 11:43:10;;;;;;;0.85;0.38;;;19.40;99.90;;;;;;5072463;28;20404;-74
2022/07/23 11:45:43;;;;;;;1.17;0.52;;;19.70;99.90;;;;;;5072818;28;20400;-75
2022/07/23 11:48:16;;;;;;;1.50;0.60;;;19.60;99.90;;;;;;5072066;28;20040;-74
2022/07/23 11:50:41;;;;;;;0.82;0.43;;;19.60;99.90;;;;;;5052615;28;20060;-74
2022/07/23 11:53:07;;;;;;;;;;;19.60;99.90;;;;;;5054120;28;20048;-74
2022/07/23 11:55:33;;;;;;;0.85;0.40;;;19.60;99.90;;;;;;5086024;28;20382;-74
2022/07/23 11:57:58;;;;;;;;;;;19.50;99.90;;;;;;5052475;28;20147;-74
2022/07/23 12:00:28;;;;;;;0.65;0.45;;;19.50;99.90;;;;;;5052658;28;19924;-74
2022/07/23 12:03:01;;;;;;;1.42;0.70;;;19.50;99.90;;;;;;5067953;28;20052;-74
2022/07/23 12:05:35;;;;;;;0.85;0.50;;;19.80;99.90;;;;;;5069270;28;20049;-73
2022/07/23 12:08:01;;;;;;;0.65;0.50;;;20.50;99.90;;;;;;5073531;28;20076;-74
2022/07/23 12:10:41;;;;;;;1.33;0.70;;;20.40;99.90;;;;;;5072176;28;20036;-74
2022/07/23 12:13:22;;;;;;;0.50;0.45;;;20.20;99.90;;;;;;5071946;28;20048;-74
2022/07/23 12:15:58;;;;;;;1.05;0.60;;;20.20;99.90;;;;;;5106171;28;20044;-74
2022/07/23 12:18:26;;;;;;;2.22;0.70;;;20.50;99.90;;;;;;5071966;28;20119;-74
2022/07/23 12:20:54;;;;;;;1.13;0.50;;;20.80;99.90;;;;;;5071640;28;20115;-75
2022/07/23 12:23:21;;;;;;;0.50;0.50;;;20.40;99.90;;;;;;5072028;28;20550;-73
2022/07/23 12:25:49;;;;;;;1.23;0.55;;;20.40;99.90;;;;;;5054316;28;20040;-73
2022/07/23 12:28:20;;;;;;;0.98;0.38;;;20.60;99.90;;;;;;5105805;28;20036;-74
2022/07/23 12:30:52;;;;;;;0.98;0.52;;;21.10;99.90;;;;;;5120016;27;20060;-74
2022/07/23 12:33:31;;;;;;;0.80;0.40;;;21.00;99.80;;;;;;5091756;28;20043;-74
2022/07/23 12:35:58;;;;;;;0.45;0.30;;;21.80;99.90;;;;;;5091709;28;20043;-72
2022/07/23 12:38:28;;;;;;;0.40;0.40;;;21.90;99.10;;;;;;5091976;28;20819;-74
2022/07/23 12:40:59;;;;;;;0.68;0.50;;;22.00;99.60;;;;;;5091519;28;20078;-74
2022/07/23 12:43:31;;;;;;;0.95;0.40;;;21.70;98.40;;;;;;5125960;27;20046;-73
2022/07/23 12:46:08;;;;;;;0.63;0.40;;;21.50;99.80;;;;;;5126002;27;20040;-74
2022/07/23 12:48:53;;;;;;;1.30;0.50;;;21.30;99.60;;;;;;5126061;27;20390;-74
2022/07/23 12:51:23;;;;;;;0.60;0.60;;;21.30;97.70;;;;;;5125975;27;20395;-74
2022/07/23 12:53:54;;;;;;;0.73;0.50;;;21.60;99.50;;;;;;5074760;28;20048;-74
2022/07/23 12:56:28;;;;;;;1.42;0.47;;;22.00;99.60;;;;;;5125067;27;20036;-73